sensor_id;sensor_type;location;lat;lon;timestamp;P1;durP1;ratioP1;P2;durP2;ratioP2
3070;SDS011;1546;47.208;9.038;2023-09-18T00:01:12;11.70;;;3.00;;
3070;SDS011;1546;47.208;9.038;2023-09-18T00:03:40;8.37;;;2.77;;
3070;SDS011;1546;47.208;9.038;2023-09-18T00:06:07;13.73;;;2.50;;
3070;SDS011;1546;47.208;9.038;2023-09-18T00:08:34;8.33;;;2.77;;
3070;SDS011;1546;47.208;9.038;2023-09-18T00:11:00;9.40;;;2.93;;
3070;SDS011;1546;47.208;9.038;2023-09-18T00:13:27;10.73;;;4.27;;
3070;SDS011;1546;47.208;9.038;2023-09-18T00:15:54;10.10;;;2.80;;
3070;SDS011;1546;47.208;9.038;2023-09-18T00:18:26;6.73;;;2.20;;
3070;SDS011;1546;47.208;9.038;2023-09-18T00:20:53;9.50;;;2.73;;
3070;SDS011;1546;47.208;9.038;2023-09-18T00:23:19;16.63;;;2.60;;
3070;SDS011;1546;47.208;9.038;2023-09-18T00:25:46;7.53;;;2.47;;
3070;SDS011;1546;47.208;9.038;2023-09-18T00:28:13;10.30;;;2.33;;
3070;SDS011;1546;47.208;9.038;2023-09-18T00:30:42;12.30;;;3.00;;
3070;SDS011;1546;47.208;9.038;2023-09-18T00:33:13;7.13;;;2.40;;
3070;SDS011;1546;47.208;9.038;2023-09-18T00:35:41;7.07;;;2.60;;
3070;SDS011;1546;47.208;9.038;2023-09-18T00:38:11;12.37;;;2.20;;
3070;SDS011;1546;47.208;9.038;2023-09-18T00:40:38;20.57;;;4.03;;
3070;SDS011;1546;47.208;9.038;2023-09-18T00:43:05;8.10;;;2.90;;
3070;SDS011;1546;47.208;9.038;2023-09-18T00:45:31;12.67;;;3.67;;
3070;SDS011;1546;47.208;9.038;2023-09-18T00:47:59;6.93;;;2.80;;
3070;SDS011;1546;47.208;9.038;2023-09-18T00:50:26;11.10;;;2.87;;
3070;SDS011;1546;47.208;9.038;2023-09-18T00:52:54;15.20;;;2.80;;
3070;SDS011;1546;47.208;9.038;2023-09-18T00:55:21;13.70;;;2.50;;
3070;SDS011;1546;47.208;9.038;2023-09-18T00:57:48;7.30;;;3.00;;
3070;SDS011;1546;47.208;9.038;2023-09-18T01:00:15;7.40;;;2.70;;
3070;SDS011;1546;47.208;9.038;2023-09-18T01:02:42;8.60;;;2.40;;
3070;SDS011;1546;47.208;9.038;2023-09-18T01:05:10;11.03;;;2.47;;
3070;SDS011;1546;47.208;9.038;2023-09-18T01:07:37;6.63;;;2.20;;
3070;SDS011;1546;47.208;9.038;2023-09-18T01:10:06;7.77;;;2.17;;
3070;SDS011;1546;47.208;9.038;2023-09-18T01:12:36;8.30;;;2.60;;
3070;SDS011;1546;47.208;9.038;2023-09-18T01:15:12;7.90;;;2.10;;
3070;SDS011;1546;47.208;9.038;2023-09-18T01:17:43;8.93;;;2.90;;
3070;SDS011;1546;47.208;9.038;2023-09-18T01:20:11;7.97;;;2.63;;
3070;SDS011;1546;47.208;9.038;2023-09-18T01:22:39;6.93;;;2.43;;
3070;SDS011;1546;47.208;9.038;2023-09-18T01:25:06;6.00;;;2.50;;
3070;SDS011;1546;47.208;9.038;2023-09-18T01:27:33;5.43;;;1.80;;
3070;SDS011;1546;47.208;9.038;2023-09-18T01:30:00;13.03;;;4.60;;
3070;SDS011;1546;47.208;9.038;2023-09-18T01:32:28;12.93;;;3.03;;
3070;SDS011;1546;47.208;9.038;2023-09-18T01:34:57;11.43;;;3.37;;
3070;SDS011;1546;47.208;9.038;2023-09-18T01:37:28;11.33;;;3.10;;
3070;SDS011;1546;47.208;9.038;2023-09-18T01:39:57;9.43;;;2.63;;
3070;SDS011;1546;47.208;9.038;2023-09-18T01:42:25;10.77;;;3.33;;
3070;SDS011;1546;47.208;9.038;2023-09-18T01:44:53;5.03;;;2.17;;
3070;SDS011;1546;47.208;9.038;2023-09-18T01:47:20;6.03;;;2.40;;
3070;SDS011;1546;47.208;9.038;2023-09-18T01:49:48;8.43;;;2.43;;
3070;SDS011;1546;47.208;9.038;2023-09-18T01:52:15;12.97;;;2.70;;
3070;SDS011;1546;47.208;9.038;2023-09-18T01:54:42;6.30;;;2.30;;
3070;SDS011;1546;47.208;9.038;2023-09-18T01:57:10;7.57;;;2.80;;
3070;SDS011;1546;47.208;9.038;2023-09-18T01:59:38;7.20;;;2.70;;
3070;SDS011;1546;47.208;9.038;2023-09-18T02:02:06;9.27;;;3.00;;
3070;SDS011;1546;47.208;9.038;2023-09-18T02:04:34;11.60;;;2.80;;
3070;SDS011;1546;47.208;9.038;2023-09-18T02:07:01;9.10;;;2.50;;
3070;SDS011;1546;47.208;9.038;2023-09-18T02:09:28;10.57;;;3.10;;
3070;SDS011;1546;47.208;9.038;2023-09-18T02:11:55;10.67;;;2.50;;
3070;SDS011;1546;47.208;9.038;2023-09-18T02:14:23;13.53;;;2.20;;
3070;SDS011;1546;47.208;9.038;2023-09-18T02:16:50;9.50;;;2.97;;
3070;SDS011;1546;47.208;9.038;2023-09-18T02:19:17;7.73;;;2.80;;
3070;SDS011;1546;47.208;9.038;2023-09-18T02:21:45;10.60;;;2.70;;
3070;SDS011;1546;47.208;9.038;2023-09-18T02:24:12;6.10;;;2.20;;
3070;SDS011;1546;47.208;9.038;2023-09-18T02:26:38;9.43;;;3.10;;
3070;SDS011;1546;47.208;9.038;2023-09-18T02:29:07;8.70;;;2.67;;
3070;SDS011;1546;47.208;9.038;2023-09-18T02:31:37;7.13;;;2.10;;
3070;SDS011;1546;47.208;9.038;2023-09-18T02:34:04;7.83;;;3.53;;
3070;SDS011;1546;47.208;9.038;2023-09-18T02:36:32;9.73;;;2.50;;
3070;SDS011;1546;47.208;9.038;2023-09-18T02:38:59;6.00;;;2.03;;
3070;SDS011;1546;47.208;9.038;2023-09-18T02:41:25;9.70;;;2.50;;
3070;SDS011;1546;47.208;9.038;2023-09-18T02:43:52;6.63;;;2.03;;
3070;SDS011;1546;47.208;9.038;2023-09-18T02:46:19;7.60;;;2.80;;
3070;SDS011;1546;47.208;9.038;2023-09-18T02:48:47;8.57;;;2.97;;
3070;SDS011;1546;47.208;9.038;2023-09-18T02:51:14;9.77;;;2.77;;
3070;SDS011;1546;47.208;9.038;2023-09-18T02:53:41;7.10;;;1.97;;
3070;SDS011;1546;47.208;9.038;2023-09-18T02:56:08;7.70;;;2.40;;
3070;SDS011;1546;47.208;9.038;2023-09-18T02:58:35;7.63;;;2.97;;
3070;SDS011;1546;47.208;9.038;2023-09-18T03:01:02;8.37;;;2.60;;
3070;SDS011;1546;47.208;9.038;2023-09-18T03:03:30;7.47;;;2.47;;
3070;SDS011;1546;47.208;9.038;2023-09-18T03:06:01;4.00;;;1.70;;
3070;SDS011;1546;47.208;9.038;2023-09-18T03:08:29;3.07;;;1.80;;
3070;SDS011;1546;47.208;9.038;2023-09-18T03:10:55;1.70;;;1.43;;
3070;SDS011;1546;47.208;9.038;2023-09-18T03:13:22;1.57;;;1.47;;
3070;SDS011;1546;47.208;9.038;2023-09-18T03:15:49;2.60;;;1.80;;
3070;SDS011;1546;47.208;9.038;2023-09-18T03:18:16;2.43;;;1.53;;
3070;SDS011;1546;47.208;9.038;2023-09-18T03:20:43;2.40;;;1.60;;
3070;SDS011;1546;47.208;9.038;2023-09-18T03:23:11;2.40;;;1.30;;
3070;SDS011;1546;47.208;9.038;2023-09-18T03:25:39;1.53;;;1.23;;
3070;SDS011;1546;47.208;9.038;2023-09-18T03:28:06;4.23;;;1.40;;
3070;SDS011;1546;47.208;9.038;2023-09-18T03:30:32;2.53;;;1.37;;
3070;SDS011;1546;47.208;9.038;2023-09-18T03:32:59;2.80;;;1.67;;
3070;SDS011;1546;47.208;9.038;2023-09-18T03:35:28;1.63;;;1.40;;
3070;SDS011;1546;47.208;9.038;2023-09-18T03:37:55;1.77;;;1.63;;
3070;SDS011;1546;47.208;9.038;2023-09-18T03:40:23;1.60;;;1.30;;
3070;SDS011;1546;47.208;9.038;2023-09-18T03:42:50;2.00;;;1.70;;
3070;SDS011;1546;47.208;9.038;2023-09-18T03:45:17;2.70;;;1.83;;
3070;SDS011;1546;47.208;9.038;2023-09-18T03:47:44;1.40;;;1.30;;
3070;SDS011;1546;47.208;9.038;2023-09-18T03:50:11;2.83;;;1.77;;
3070;SDS011;1546;47.208;9.038;2023-09-18T03:52:39;2.03;;;1.60;;
3070;SDS011;1546;47.208;9.038;2023-09-18T03:55:06;1.83;;;1.20;;
3070;SDS011;1546;47.208;9.038;2023-09-18T03:57:35;1.53;;;1.40;;
3070;SDS011;1546;47.208;9.038;2023-09-18T04:00:02;1.80;;;1.30;;
3070;SDS011;1546;47.208;9.038;2023-09-18T04:02:30;1.20;;;1.10;;
3070;SDS011;1546;47.208;9.038;2023-09-18T04:04:57;2.40;;;1.70;;
3070;SDS011;1546;47.208;9.038;2023-09-18T04:07:24;1.43;;;1.30;;
3070;SDS011;1546;47.208;9.038;2023-09-18T04:09:51;2.70;;;1.60;;
3070;SDS011;1546;47.208;9.038;2023-09-18T04:12:18;2.20;;;1.53;;
3070;SDS011;1546;47.208;9.038;2023-09-18T04:14:46;2.27;;;1.40;;
3070;SDS011;1546;47.208;9.038;2023-09-18T04:17:13;4.17;;;1.70;;
3070;SDS011;1546;47.208;9.038;2023-09-18T04:19:40;3.10;;;1.70;;
3070;SDS011;1546;47.208;9.038;2023-09-18T04:22:08;0.97;;;0.97;;
3070;SDS011;1546;47.208;9.038;2023-09-18T04:24:35;1.17;;;1.17;;
3070;SDS011;1546;47.208;9.038;2023-09-18T04:27:02;4.93;;;1.97;;
3070;SDS011;1546;47.208;9.038;2023-09-18T04:29:29;1.23;;;0.90;;
3070;SDS011;1546;47.208;9.038;2023-09-18T04:31:57;1.07;;;1.00;;
3070;SDS011;1546;47.208;9.038;2023-09-18T04:34:24;0.90;;;0.90;;
3070;SDS011;1546;47.208;9.038;2023-09-18T04:36:51;1.07;;;0.93;;
3070;SDS011;1546;47.208;9.038;2023-09-18T04:39:17;1.70;;;0.80;;
3070;SDS011;1546;47.208;9.038;2023-09-18T04:41:44;1.50;;;0.97;;
3070;SDS011;1546;47.208;9.038;2023-09-18T04:44:11;0.90;;;0.90;;
3070;SDS011;1546;47.208;9.038;2023-09-18T04:46:39;3.37;;;1.07;;
3070;SDS011;1546;47.208;9.038;2023-09-18T04:49:08;0.70;;;0.70;;
3070;SDS011;1546;47.208;9.038;2023-09-18T04:51:37;0.80;;;0.80;;
3070;SDS011;1546;47.208;9.038;2023-09-18T04:54:04;0.60;;;0.60;;
3070;SDS011;1546;47.208;9.038;2023-09-18T04:56:31;1.23;;;0.73;;
3070;SDS011;1546;47.208;9.038;2023-09-18T04:58:59;0.80;;;0.73;;
3070;SDS011;1546;47.208;9.038;2023-09-18T05:01:25;0.50;;;0.50;;
3070;SDS011;1546;47.208;9.038;2023-09-18T05:03:52;1.17;;;1.07;;
3070;SDS011;1546;47.208;9.038;2023-09-18T05:06:20;0.60;;;0.60;;
3070;SDS011;1546;47.208;9.038;2023-09-18T05:08:47;2.33;;;1.43;;
3070;SDS011;1546;47.208;9.038;2023-09-18T05:11:14;1.40;;;0.77;;
3070;SDS011;1546;47.208;9.038;2023-09-18T05:13:43;1.27;;;0.60;;
3070;SDS011;1546;47.208;9.038;2023-09-18T05:16:11;0.73;;;0.73;;
3070;SDS011;1546;47.208;9.038;2023-09-18T05:18:38;0.70;;;0.60;;
3070;SDS011;1546;47.208;9.038;2023-09-18T05:21:05;0.87;;;0.80;;
3070;SDS011;1546;47.208;9.038;2023-09-18T05:23:36;1.37;;;0.80;;
3070;SDS011;1546;47.208;9.038;2023-09-18T05:26:02;1.77;;;1.30;;
3070;SDS011;1546;47.208;9.038;2023-09-18T05:28:29;1.03;;;0.80;;
3070;SDS011;1546;47.208;9.038;2023-09-18T05:30:56;1.47;;;0.90;;
3070;SDS011;1546;47.208;9.038;2023-09-18T05:33:23;0.70;;;0.70;;
3070;SDS011;1546;47.208;9.038;2023-09-18T05:35:50;1.10;;;1.00;;
3070;SDS011;1546;47.208;9.038;2023-09-18T05:38:17;0.70;;;0.70;;
3070;SDS011;1546;47.208;9.038;2023-09-18T05:40:45;0.80;;;0.80;;
3070;SDS011;1546;47.208;9.038;2023-09-18T05:43:12;1.27;;;0.90;;
3070;SDS011;1546;47.208;9.038;2023-09-18T05:45:39;0.80;;;0.70;;
3070;SDS011;1546;47.208;9.038;2023-09-18T05:48:06;1.03;;;0.73;;
3070;SDS011;1546;47.208;9.038;2023-09-18T05:50:34;1.70;;;1.00;;
3070;SDS011;1546;47.208;9.038;2023-09-18T05:53:02;0.80;;;0.80;;
3070;SDS011;1546;47.208;9.038;2023-09-18T05:55:29;1.47;;;0.87;;
3070;SDS011;1546;47.208;9.038;2023-09-18T05:57:58;1.27;;;1.17;;
3070;SDS011;1546;47.208;9.038;2023-09-18T06:00:25;5.57;;;2.60;;
3070;SDS011;1546;47.208;9.038;2023-09-18T06:02:52;3.63;;;2.03;;
3070;SDS011;1546;47.208;9.038;2023-09-18T06:05:19;1.87;;;1.20;;
3070;SDS011;1546;47.208;9.038;2023-09-18T06:07:47;0.90;;;0.90;;
3070;SDS011;1546;47.208;9.038;2023-09-18T06:10:14;2.63;;;1.30;;
3070;SDS011;1546;47.208;9.038;2023-09-18T06:12:41;0.87;;;0.87;;
3070;SDS011;1546;47.208;9.038;2023-09-18T06:15:10;1.03;;;0.93;;
3070;SDS011;1546;47.208;9.038;2023-09-18T06:17:38;1.23;;;1.00;;
3070;SDS011;1546;47.208;9.038;2023-09-18T06:20:05;1.43;;;1.10;;
3070;SDS011;1546;47.208;9.038;2023-09-18T06:22:35;1.27;;;1.00;;
3070;SDS011;1546;47.208;9.038;2023-09-18T06:25:03;2.03;;;1.10;;
3070;SDS011;1546;47.208;9.038;2023-09-18T06:27:30;1.90;;;1.07;;
3070;SDS011;1546;47.208;9.038;2023-09-18T06:29:58;4.07;;;1.67;;
3070;SDS011;1546;47.208;9.038;2023-09-18T06:32:27;0.80;;;0.80;;
3070;SDS011;1546;47.208;9.038;2023-09-18T06:34:53;0.77;;;0.73;;
3070;SDS011;1546;47.208;9.038;2023-09-18T06:37:22;1.23;;;1.00;;
3070;SDS011;1546;47.208;9.038;2023-09-18T06:39:49;0.90;;;0.90;;
3070;SDS011;1546;47.208;9.038;2023-09-18T06:42:16;0.87;;;0.83;;
3070;SDS011;1546;47.208;9.038;2023-09-18T06:44:43;0.80;;;0.80;;
3070;SDS011;1546;47.208;9.038;2023-09-18T06:47:10;0.70;;;0.70;;
3070;SDS011;1546;47.208;9.038;2023-09-18T06:49:38;0.77;;;0.77;;
3070;SDS011;1546;47.208;9.038;2023-09-18T06:52:06;2.10;;;1.10;;
3070;SDS011;1546;47.208;9.038;2023-09-18T06:54:33;0.77;;;0.77;;
3070;SDS011;1546;47.208;9.038;2023-09-18T06:57:01;2.33;;;1.17;;
3070;SDS011;1546;47.208;9.038;2023-09-18T06:59:28;0.80;;;0.70;;
3070;SDS011;1546;47.208;9.038;2023-09-18T07:01:55;0.80;;;0.80;;
3070;SDS011;1546;47.208;9.038;2023-09-18T07:04:22;1.40;;;0.90;;
3070;SDS011;1546;47.208;9.038;2023-09-18T07:06:50;0.67;;;0.67;;
3070;SDS011;1546;47.208;9.038;2023-09-18T07:09:18;1.50;;;0.80;;
3070;SDS011;1546;47.208;9.038;2023-09-18T07:11:48;0.80;;;0.77;;
3070;SDS011;1546;47.208;9.038;2023-09-18T07:14:15;0.53;;;0.53;;
3070;SDS011;1546;47.208;9.038;2023-09-18T07:16:42;0.50;;;0.50;;
3070;SDS011;1546;47.208;9.038;2023-09-18T07:19:09;0.57;;;0.53;;
3070;SDS011;1546;47.208;9.038;2023-09-18T07:21:36;0.47;;;0.47;;
3070;SDS011;1546;47.208;9.038;2023-09-18T07:24:06;0.60;;;0.60;;
3070;SDS011;1546;47.208;9.038;2023-09-18T07:26:35;0.70;;;0.70;;
3070;SDS011;1546;47.208;9.038;2023-09-18T07:29:02;0.50;;;0.50;;
3070;SDS011;1546;47.208;9.038;2023-09-18T07:31:29;0.40;;;0.40;;
3070;SDS011;1546;47.208;9.038;2023-09-18T07:33:56;0.40;;;0.40;;
3070;SDS011;1546;47.208;9.038;2023-09-18T07:36:23;0.30;;;0.30;;
3070;SDS011;1546;47.208;9.038;2023-09-18T07:38:49;0.30;;;0.30;;
3070;SDS011;1546;47.208;9.038;2023-09-18T07:41:17;0.67;;;0.40;;
3070;SDS011;1546;47.208;9.038;2023-09-18T07:43:46;0.20;;;0.20;;
3070;SDS011;1546;47.208;9.038;2023-09-18T07:46:12;1.30;;;0.30;;
3070;SDS011;1546;47.208;9.038;2023-09-18T07:48:39;0.30;;;0.30;;
3070;SDS011;1546;47.208;9.038;2023-09-18T07:51:06;0.20;;;0.20;;
3070;SDS011;1546;47.208;9.038;2023-09-18T07:53:37;0.10;;;0.10;;
3070;SDS011;1546;47.208;9.038;2023-09-18T07:56:03;0.10;;;0.10;;
3070;SDS011;1546;47.208;9.038;2023-09-18T07:58:31;0.30;;;0.10;;
3070;SDS011;1546;47.208;9.038;2023-09-18T08:00:59;0.23;;;0.10;;
3070;SDS011;1546;47.208;9.038;2023-09-18T08:03:26;0.87;;;0.27;;
3070;SDS011;1546;47.208;9.038;2023-09-18T08:05:53;0.20;;;0.20;;
3070;SDS011;1546;47.208;9.038;2023-09-18T08:08:20;0.13;;;0.10;;
3070;SDS011;1546;47.208;9.038;2023-09-18T08:10:48;0.10;;;0.03;;
3070;SDS011;1546;47.208;9.038;2023-09-18T08:13:16;0.10;;;0.07;;
3070;SDS011;1546;47.208;9.038;2023-09-18T08:15:44;0.00;;;0.00;;
3070;SDS011;1546;47.208;9.038;2023-09-18T08:18:11;0.00;;;0.00;;
3070;SDS011;1546;47.208;9.038;2023-09-18T08:20:40;0.10;;;0.00;;
3070;SDS011;1546;47.208;9.038;2023-09-18T08:23:07;0.00;;;0.00;;
3070;SDS011;1546;47.208;9.038;2023-09-18T08:25:34;0.00;;;0.00;;
3070;SDS011;1546;47.208;9.038;2023-09-18T08:28:01;0.10;;;0.10;;
3070;SDS011;1546;47.208;9.038;2023-09-18T08:30:29;0.00;;;0.00;;
3070;SDS011;1546;47.208;9.038;2023-09-18T08:32:58;0.00;;;0.00;;
3070;SDS011;1546;47.208;9.038;2023-09-18T08:35:24;0.00;;;0.00;;
3070;SDS011;1546;47.208;9.038;2023-09-18T08:37:54;0.03;;;0.00;;
3070;SDS011;1546;47.208;9.038;2023-09-18T08:40:22;0.00;;;0.00;;
3070;SDS011;1546;47.208;9.038;2023-09-18T08:42:51;0.00;;;0.00;;
3070;SDS011;1546;47.208;9.038;2023-09-18T08:45:21;0.10;;;0.00;;
3070;SDS011;1546;47.208;9.038;2023-09-18T08:47:49;0.00;;;0.00;;
3070;SDS011;1546;47.208;9.038;2023-09-18T08:50:19;0.00;;;0.00;;
3070;SDS011;1546;47.208;9.038;2023-09-18T08:52:46;0.00;;;0.00;;
3070;SDS011;1546;47.208;9.038;2023-09-18T08:55:13;0.00;;;0.00;;
3070;SDS011;1546;47.208;9.038;2023-09-18T08:57:41;0.00;;;0.00;;
3070;SDS011;1546;47.208;9.038;2023-09-18T09:00:10;0.10;;;0.00;;
3070;SDS011;1546;47.208;9.038;2023-09-18T09:02:41;0.00;;;0.00;;
3070;SDS011;1546;47.208;9.038;2023-09-18T09:05:09;0.00;;;0.00;;
3070;SDS011;1546;47.208;9.038;2023-09-18T09:07:37;0.00;;;0.00;;
3070;SDS011;1546;47.208;9.038;2023-09-18T09:10:04;0.00;;;0.00;;
3070;SDS011;1546;47.208;9.038;2023-09-18T09:12:47;0.00;;;0.00;;
3070;SDS011;1546;47.208;9.038;2023-09-18T09:15:15;0.00;;;0.00;;
3070;SDS011;1546;47.208;9.038;2023-09-18T09:17:42;0.00;;;0.00;;
3070;SDS011;1546;47.208;9.038;2023-09-18T09:20:10;0.00;;;0.00;;
3070;SDS011;1546;47.208;9.038;2023-09-18T09:22:39;0.00;;;0.00;;
3070;SDS011;1546;47.208;9.038;2023-09-18T09:25:21;0.00;;;0.00;;
3070;SDS011;1546;47.208;9.038;2023-09-18T09:27:49;0.00;;;0.00;;
3070;SDS011;1546;47.208;9.038;2023-09-18T09:30:18;0.00;;;0.00;;
3070;SDS011;1546;47.208;9.038;2023-09-18T09:32:47;0.00;;;0.00;;
3070;SDS011;1546;47.208;9.038;2023-09-18T09:35:19;0.00;;;0.00;;
3070;SDS011;1546;47.208;9.038;2023-09-18T09:37:49;0.00;;;0.00;;
3070;SDS011;1546;47.208;9.038;2023-09-18T09:40:18;0.00;;;0.00;;
3070;SDS011;1546;47.208;9.038;2023-09-18T09:42:46;0.00;;;0.00;;
3070;SDS011;1546;47.208;9.038;2023-09-18T09:45:14;0.00;;;0.00;;
3070;SDS011;1546;47.208;9.038;2023-09-18T09:47:41;0.00;;;0.00;;
3070;SDS011;1546;47.208;9.038;2023-09-18T09:50:09;0.00;;;0.00;;
3070;SDS011;1546;47.208;9.038;2023-09-18T09:52:43;0.00;;;0.00;;
3070;SDS011;1546;47.208;9.038;2023-09-18T09:55:22;0.00;;;0.00;;
3070;SDS011;1546;47.208;9.038;2023-09-18T09:57:52;0.00;;;0.00;;
3070;SDS011;1546;47.208;9.038;2023-09-18T10:00:22;0.00;;;0.00;;
3070;SDS011;1546;47.208;9.038;2023-09-18T10:02:56;0.00;;;0.00;;
3070;SDS011;1546;47.208;9.038;2023-09-18T10:05:24;0.00;;;0.00;;
3070;SDS011;1546;47.208;9.038;2023-09-18T10:08:00;0.00;;;0.00;;
3070;SDS011;1546;47.208;9.038;2023-09-18T10:10:35;0.00;;;0.00;;
3070;SDS011;1546;47.208;9.038;2023-09-18T10:13:05;0.00;;;0.00;;
3070;SDS011;1546;47.208;9.038;2023-09-18T10:15:36;0.17;;;0.00;;
3070;SDS011;1546;47.208;9.038;2023-09-18T10:18:05;0.00;;;0.00;;
3070;SDS011;1546;47.208;9.038;2023-09-18T10:20:37;0.00;;;0.00;;
3070;SDS011;1546;47.208;9.038;2023-09-18T10:23:10;0.00;;;0.00;;
3070;SDS011;1546;47.208;9.038;2023-09-18T10:25:56;0.00;;;0.00;;
3070;SDS011;1546;47.208;9.038;2023-09-18T10:28:28;0.00;;;0.00;;
3070;SDS011;1546;47.208;9.038;2023-09-18T10:30:56;0.00;;;0.00;;
3070;SDS011;1546;47.208;9.038;2023-09-18T10:33:24;0.00;;;0.00;;
3070;SDS011;1546;47.208;9.038;2023-09-18T10:35:52;0.00;;;0.00;;
3070;SDS011;1546;47.208;9.038;2023-09-18T10:38:20;0.10;;;0.10;;
3070;SDS011;1546;47.208;9.038;2023-09-18T10:40:47;0.20;;;0.20;;
3070;SDS011;1546;47.208;9.038;2023-09-18T10:43:16;0.30;;;0.30;;
3070;SDS011;1546;47.208;9.038;2023-09-18T10:45:44;0.67;;;0.27;;
3070;SDS011;1546;47.208;9.038;2023-09-18T10:48:11;0.00;;;0.00;;
3070;SDS011;1546;47.208;9.038;2023-09-18T10:50:39;0.10;;;0.10;;
3070;SDS011;1546;47.208;9.038;2023-09-18T10:53:08;0.20;;;0.20;;
3070;SDS011;1546;47.208;9.038;2023-09-18T10:55:35;0.20;;;0.20;;
3070;SDS011;1546;47.208;9.038;2023-09-18T10:58:03;0.20;;;0.20;;
3070;SDS011;1546;47.208;9.038;2023-09-18T11:00:32;0.10;;;0.10;;
3070;SDS011;1546;47.208;9.038;2023-09-18T11:03:11;0.27;;;0.00;;
3070;SDS011;1546;47.208;9.038;2023-09-18T11:05:39;0.00;;;0.00;;
3070;SDS011;1546;47.208;9.038;2023-09-18T11:08:25;0.10;;;0.10;;
3070;SDS011;1546;47.208;9.038;2023-09-18T11:10:59;0.10;;;0.10;;
3070;SDS011;1546;47.208;9.038;2023-09-18T11:13:35;0.13;;;0.13;;
3070;SDS011;1546;47.208;9.038;2023-09-18T11:16:14;0.10;;;0.10;;
3070;SDS011;1546;47.208;9.038;2023-09-18T11:18:49;0.10;;;0.10;;
3070;SDS011;1546;47.208;9.038;2023-09-18T11:21:17;0.20;;;0.20;;
3070;SDS011;1546;47.208;9.038;2023-09-18T11:23:51;0.10;;;0.10;;
3070;SDS011;1546;47.208;9.038;2023-09-18T11:26:24;0.10;;;0.10;;
3070;SDS011;1546;47.208;9.038;2023-09-18T11:28:55;0.10;;;0.10;;
3070;SDS011;1546;47.208;9.038;2023-09-18T11:34:19;0.33;;;0.30;;
3070;SDS011;1546;47.208;9.038;2023-09-18T11:36:47;0.30;;;0.30;;
3070;SDS011;1546;47.208;9.038;2023-09-18T11:42:07;0.30;;;0.30;;
3070;SDS011;1546;47.208;9.038;2023-09-18T11:44:35;0.27;;;0.27;;
3070;SDS011;1546;47.208;9.038;2023-09-18T11:47:07;0.30;;;0.30;;
3070;SDS011;1546;47.208;9.038;2023-09-18T11:49:42;0.20;;;0.20;;
3070;SDS011;1546;47.208;9.038;2023-09-18T11:52:15;0.40;;;0.40;;
3070;SDS011;1546;47.208;9.038;2023-09-18T11:54:43;0.20;;;0.20;;
3070;SDS011;1546;47.208;9.038;2023-09-18T11:57:12;0.30;;;0.30;;
3070;SDS011;1546;47.208;9.038;2023-09-18T11:59:39;0.20;;;0.20;;
3070;SDS011;1546;47.208;9.038;2023-09-18T12:02:09;0.30;;;0.30;;
3070;SDS011;1546;47.208;9.038;2023-09-18T12:04:36;0.20;;;0.20;;
3070;SDS011;1546;47.208;9.038;2023-09-18T12:07:04;0.20;;;0.20;;
3070;SDS011;1546;47.208;9.038;2023-09-18T12:09:33;0.20;;;0.20;;
3070;SDS011;1546;47.208;9.038;2023-09-18T12:12:01;0.20;;;0.20;;
3070;SDS011;1546;47.208;9.038;2023-09-18T12:14:31;0.20;;;0.20;;
3070;SDS011;1546;47.208;9.038;2023-09-18T12:16:59;0.10;;;0.10;;
3070;SDS011;1546;47.208;9.038;2023-09-18T12:19:29;0.10;;;0.10;;
3070;SDS011;1546;47.208;9.038;2023-09-18T12:21:59;0.20;;;0.20;;
3070;SDS011;1546;47.208;9.038;2023-09-18T12:24:26;0.30;;;0.30;;
3070;SDS011;1546;47.208;9.038;2023-09-18T12:26:54;0.20;;;0.20;;
3070;SDS011;1546;47.208;9.038;2023-09-18T12:29:21;0.10;;;0.10;;
3070;SDS011;1546;47.208;9.038;2023-09-18T12:31:48;0.10;;;0.00;;
3070;SDS011;1546;47.208;9.038;2023-09-18T12:34:17;0.00;;;0.00;;
3070;SDS011;1546;47.208;9.038;2023-09-18T12:36:47;0.00;;;0.00;;
3070;SDS011;1546;47.208;9.038;2023-09-18T12:39:15;0.00;;;0.00;;
3070;SDS011;1546;47.208;9.038;2023-09-18T12:41:43;0.00;;;0.00;;
3070;SDS011;1546;47.208;9.038;2023-09-18T12:44:11;0.00;;;0.00;;
3070;SDS011;1546;47.208;9.038;2023-09-18T12:46:41;0.00;;;0.00;;
3070;SDS011;1546;47.208;9.038;2023-09-18T12:49:16;0.00;;;0.00;;
3070;SDS011;1546;47.208;9.038;2023-09-18T12:51:43;0.00;;;0.00;;
3070;SDS011;1546;47.208;9.038;2023-09-18T12:54:12;0.00;;;0.00;;
3070;SDS011;1546;47.208;9.038;2023-09-18T12:56:41;0.10;;;0.10;;
3070;SDS011;1546;47.208;9.038;2023-09-18T12:59:08;0.10;;;0.10;;
3070;SDS011;1546;47.208;9.038;2023-09-18T13:01:35;0.00;;;0.00;;
3070;SDS011;1546;47.208;9.038;2023-09-18T13:04:03;0.00;;;0.00;;
3070;SDS011;1546;47.208;9.038;2023-09-18T13:06:31;0.00;;;0.00;;
3070;SDS011;1546;47.208;9.038;2023-09-18T13:11:52;0.10;;;0.10;;
3070;SDS011;1546;47.208;9.038;2023-09-18T13:14:20;0.30;;;0.30;;
3070;SDS011;1546;47.208;9.038;2023-09-18T13:16:46;0.40;;;0.40;;
3070;SDS011;1546;47.208;9.038;2023-09-18T13:19:13;0.50;;;0.50;;
3070;SDS011;1546;47.208;9.038;2023-09-18T13:21:46;0.23;;;0.23;;
3070;SDS011;1546;47.208;9.038;2023-09-18T13:24:25;0.20;;;0.20;;
3070;SDS011;1546;47.208;9.038;2023-09-18T13:26:53;0.63;;;0.30;;
3070;SDS011;1546;47.208;9.038;2023-09-18T13:29:20;0.30;;;0.30;;
3070;SDS011;1546;47.208;9.038;2023-09-18T13:31:47;0.20;;;0.20;;
3070;SDS011;1546;47.208;9.038;2023-09-18T13:34:14;0.10;;;0.10;;
3070;SDS011;1546;47.208;9.038;2023-09-18T13:36:43;0.10;;;0.10;;
3070;SDS011;1546;47.208;9.038;2023-09-18T13:39:10;0.13;;;0.13;;
3070;SDS011;1546;47.208;9.038;2023-09-18T13:41:38;0.00;;;0.00;;
3070;SDS011;1546;47.208;9.038;2023-09-18T13:44:06;0.00;;;0.00;;
3070;SDS011;1546;47.208;9.038;2023-09-18T13:46:33;0.00;;;0.00;;
3070;SDS011;1546;47.208;9.038;2023-09-18T13:49:01;0.00;;;0.00;;
3070;SDS011;1546;47.208;9.038;2023-09-18T13:51:30;0.10;;;0.10;;
3070;SDS011;1546;47.208;9.038;2023-09-18T13:53:57;0.00;;;0.00;;
3070;SDS011;1546;47.208;9.038;2023-09-18T13:56:24;0.00;;;0.00;;
3070;SDS011;1546;47.208;9.038;2023-09-18T13:58:54;0.10;;;0.10;;
3070;SDS011;1546;47.208;9.038;2023-09-18T14:01:21;0.20;;;0.20;;
3070;SDS011;1546;47.208;9.038;2023-09-18T14:03:50;0.10;;;0.10;;
3070;SDS011;1546;47.208;9.038;2023-09-18T14:06:18;0.20;;;0.20;;
3070;SDS011;1546;47.208;9.038;2023-09-18T14:08:44;0.10;;;0.10;;
3070;SDS011;1546;47.208;9.038;2023-09-18T14:11:11;0.00;;;0.00;;
3070;SDS011;1546;47.208;9.038;2023-09-18T14:13:38;0.17;;;0.10;;
3070;SDS011;1546;47.208;9.038;2023-09-18T14:16:07;0.00;;;0.00;;
3070;SDS011;1546;47.208;9.038;2023-09-18T14:18:35;0.00;;;0.00;;
3070;SDS011;1546;47.208;9.038;2023-09-18T14:21:02;0.00;;;0.00;;
3070;SDS011;1546;47.208;9.038;2023-09-18T14:23:29;0.10;;;0.10;;
3070;SDS011;1546;47.208;9.038;2023-09-18T14:25:56;0.10;;;0.10;;
3070;SDS011;1546;47.208;9.038;2023-09-18T14:28:24;0.10;;;0.10;;
3070;SDS011;1546;47.208;9.038;2023-09-18T14:30:50;0.10;;;0.10;;
3070;SDS011;1546;47.208;9.038;2023-09-18T14:33:19;0.10;;;0.10;;
3070;SDS011;1546;47.208;9.038;2023-09-18T14:35:45;0.10;;;0.10;;
3070;SDS011;1546;47.208;9.038;2023-09-18T14:38:12;0.20;;;0.20;;
3070;SDS011;1546;47.208;9.038;2023-09-18T14:40:40;0.20;;;0.20;;
3070;SDS011;1546;47.208;9.038;2023-09-18T14:43:07;0.20;;;0.20;;
3070;SDS011;1546;47.208;9.038;2023-09-18T14:45:34;0.20;;;0.20;;
3070;SDS011;1546;47.208;9.038;2023-09-18T14:48:03;0.20;;;0.20;;
3070;SDS011;1546;47.208;9.038;2023-09-18T14:50:32;0.30;;;0.30;;
3070;SDS011;1546;47.208;9.038;2023-09-18T14:52:59;0.40;;;0.40;;
3070;SDS011;1546;47.208;9.038;2023-09-18T14:55:32;0.70;;;0.70;;
3070;SDS011;1546;47.208;9.038;2023-09-18T14:58:00;0.60;;;0.60;;
3070;SDS011;1546;47.208;9.038;2023-09-18T15:00:27;1.23;;;0.80;;
3070;SDS011;1546;47.208;9.038;2023-09-18T15:02:54;0.53;;;0.53;;
3070;SDS011;1546;47.208;9.038;2023-09-18T15:05:21;0.63;;;0.60;;
3070;SDS011;1546;47.208;9.038;2023-09-18T15:07:49;0.60;;;0.60;;
3070;SDS011;1546;47.208;9.038;2023-09-18T15:10:15;0.40;;;0.40;;
3070;SDS011;1546;47.208;9.038;2023-09-18T15:12:43;0.40;;;0.40;;
3070;SDS011;1546;47.208;9.038;2023-09-18T15:15:10;0.30;;;0.30;;
3070;SDS011;1546;47.208;9.038;2023-09-18T15:17:36;0.20;;;0.20;;
3070;SDS011;1546;47.208;9.038;2023-09-18T15:20:04;0.20;;;0.20;;
3070;SDS011;1546;47.208;9.038;2023-09-18T15:22:32;0.10;;;0.10;;
3070;SDS011;1546;47.208;9.038;2023-09-18T15:25:01;0.00;;;0.00;;
3070;SDS011;1546;47.208;9.038;2023-09-18T15:27:27;0.00;;;0.00;;
3070;SDS011;1546;47.208;9.038;2023-09-18T15:29:54;0.00;;;0.00;;